Fairbanks, AK

1:29 AM AKST on December 18, 2014 (GMT -0900)
Fairbanks International | Change Station
CLOSE
Current Station
Airport
Location: Fairbanks,
Elevation: 433 ft
Nearby Weather Stations

Elev 433 ft 64.80 °N, 147.88 °W | Updated 9 minutes ago

Light Snow
Light Snow Mist
20 °F
Feels Like 20 °F
N
0
Wind Variable Wind from North

Today
High -- | Low -- °F
--% Chance of Precip.
Yesterday
High -- | Low -- °F
Precip. -- in
10:56 AM 2:40 PM
Waning Crescent, 15% visible
Pressure 29.70 in
Visibility 2.0 miles
Clouds Mostly Cloudy 500 ft
Overcast 1300 ft
Dew Point 16 °F
Humidity 85%
Rainfall 0.00 in
Snow Depth Not available.
UV 0 out of 12
Pollen Not available.
Air Quality Not available.
Flu Activity Not available.
SPECI PAFA 181020Z 00000KT 2SM -SN BR BKN005 OVC013 M07/M09 A2970 RMK AO2 PCPN VRY LGT T10671089

More Conditions Fewer Conditions

Pressure 29.70 in
Visibility 2.0 miles
Clouds Mostly Cloudy 500 ft
Overcast 1300 ft
Dew Point 16 °F
Humidity 85%
Rainfall 0.00 in
Snow Depth Not available.
UV 0 out of 12
Pollen Not available.
Air Quality Not available.
Flu Activity Not available.
SPECI PAFA 181020Z 00000KT 2SM -SN BR BKN005 OVC013 M07/M09 A2970 RMK AO2 PCPN VRY LGT T10671089

More Conditions Fewer Conditions

10-Day Weather Forecast

Almanac

Astronomy

Dec. 18, 2014 Rise Set
Actual Time
Civil Twilight
Nautical Twilight
Astronomical Twilight
Moon
Length of Visible Light
Length of Day
Tomorrow will be .
, % of the Moon is Illuminated

Today's Extremes

State Highs State Lows

Community

WunderPhotos

Upload Photos

1,778,907 photos uploaded!

WunderBlogs® & News

Nearby

Air Quality

  Air Quality AQ Index Pollutant
Not available.

Snow Depth

Station Depth Elevation

Earthquake Activity

City Distance Mag. Time & Date
Minimum magnitude displayed is 2.5.

Coastal Water Temperatures

Place Temperature

Nearby Weather Stations